Destin, FL

11:34 PM CST on December 28, 2014 (GMT -0600)
Pear Tree Observatory | Change Station
CLOSE
Current Station
Personal Weather Station
Location: Valparaiso, FL
Elevation: 80 ft
Nearby Weather Stations

Elev 80 ft 30.51 °N, 86.50 °W | Updated 15 seconds ago

Overcast
Overcast
64.1 °F
Feels Like 64.1 °F
N
0.0
Wind Variable Wind from SSE
Gusts 0.0 mph

Today
High -- | Low -- °F
--% Chance of Precip.
Yesterday
High -- | Low -- °F
Precip. -- in
6:41 AM 4:53 PM
First Quarter, 55% visible
Pressure 30.03 in
Visibility 1.8 miles
Clouds Mostly Cloudy 1400 ft
Mostly Cloudy 2100 ft
Overcast 7000 ft
Dew Point 63 °F
Humidity 97%
Rainfall 0.27 in
Snow Depth Not available.
UV 0 out of 12
Pollen 1.30 out of 12
Air Quality Not available.
Flu Activity Not available.
SPECI KDTS 290525Z AUTO 00000KT 1 3/4SM BR BKN014 BKN021 OVC070 19/19 A3003 RMK AO2 T01940189 TSNO

More Conditions Fewer Conditions

Pressure 30.03 in
Visibility 1.8 miles
Clouds Mostly Cloudy 1400 ft
Mostly Cloudy 2100 ft
Overcast 7000 ft
Dew Point 63 °F
Humidity 97%
Rainfall 0.27 in
Snow Depth Not available.
UV 0 out of 12
Pollen 1.30 out of 12
Air Quality Not available.
Flu Activity Not available.
SPECI KDTS 290525Z AUTO 00000KT 1 3/4SM BR BKN014 BKN021 OVC070 19/19 A3003 RMK AO2 T01940189 TSNO

More Conditions Fewer Conditions

10-Day Weather Forecast

Almanac

Astronomy

Dec. 28, 2014 Rise Set
Actual Time
Civil Twilight
Nautical Twilight
Astronomical Twilight
Moon
Length of Visible Light
Length of Day
Tomorrow will be .
, % of the Moon is Illuminated

Today's Extremes

State Highs State Lows

Community

WunderPhotos

Upload Photos

1,781,542 photos uploaded!

WunderBlogs® & News

Nearby

Air Quality

  Air Quality AQ Index Pollutant
Not available.

Snow Depth

Station Depth Elevation

Earthquake Activity

City Distance Mag. Time & Date
Minimum magnitude displayed is 2.5.

Coastal Water Temperatures

Place Temperature

Nearby Weather Stations